LOS ANGELES INTL

KLAX (LAX)
Los Angeles, California
Towered

Vatsim Metar:
KLAX 291853Z 26014KT 10SM SCT033 BKN037 BKN075 13/09 A2995 RMK AO2 WSHFT 1835 SLP139 T01330089 $

No ATC Online

Traffic

Inbound:
Ident
Type
Name
ETA
Phase
N27Y
B737
Kyle Freese KOMA
19:30 Z
Descent
AAL612
A20N
Natan Moriggi SBSP
20:18 Z
Cruse
UAL5770
B737
Ioan Blidariu EDDF
20:48 Z
Climb
SWA1514
B737
Dee Brown KBWI
20:52 Z
Cruse
AAL109
A320
Matt Edwards KPHF
21:23 Z
Cruse
PAA098
A310
Tyler KBGR
21:45 Z
Cruse
AAL1337
B736
Anthony Smith KPHX
23:01 Z
Cruse
DAL753
A321
Matt Battaglia KBOI
00:28 Z
Climb
DAL101
B738
Jeff K KATL
23:54 Z
Cruse
PAC8203
B748
DONGHYEON YUN KCVG
23:11 Z
Cruse
KAL224
A346
1551286 RKSI
23:38 Z
Descent
DAL4437
A359
Brian Sturdevant KOMA
01:28 Z
Descent
CSN419
B77W
1402888
01:25 Z
Cruse
AFR965
A346
1670787 RKSS
06:15 Z
Cruse

Outbound:
Ident
Type
Name
Destination
Phase
AAL891
A320
Harri Laitinen EFHK
KSFO
Boarding
DAL2272
A320
Miikka Heikkinen EFSI
KSFO
Boarding
DAL9969
B738
juwan Christie MWCR
KSEA
Boarding
SWA1275
B737
Travis Miller KSAN
KLAS
Boarding
SWA901
B737
Andre YSSY
KABQ
Boarding
FJI811
A359
Alexandre Hanriot KMCI
NFFN
Climb